Saint John, Kansas
Current Conditions -  °F | °C
As of 1:15 AM on Sunday 26 Oct 2014 (Local Time) from KPTT Reporting Station
Clear Clear  
Wind Chill: 64°   Ceiling: Unl
Heat Index: 64°   Visibility: 10mi
Dew Point: 50°   Wind: 13mph
Humidity: 59%   Direction: 190°S
Pressure: 29.93"   Gusts: NA
Location:  38°N, 98.76°W
Report Text: KPTT 260615Z AUTO 19011KT 10SM CLR 18/10 A2993 RMK AO2
Loading
Personal Weather Stations






























Interactive Weather Map
Tropical Storm Tracking
New forecast layout! Learn more

10-Day Weather Forecast

Advertisements
Track Severe Weather on mobile